createdAt,value
2017-11-18T00:01:25.273Z,33.13
2017-11-18T00:03:54.110Z,31.50
2017-11-18T00:06:22.940Z,30.50
2017-11-18T00:08:51.788Z,34.00
2017-11-18T00:11:20.696Z,35.60
2017-11-18T00:13:49.524Z,35.37
2017-11-18T00:16:18.390Z,36.30
2017-11-18T00:18:47.215Z,35.93
2017-11-18T00:21:16.045Z,30.73
2017-11-18T00:23:44.892Z,26.93
2017-11-18T00:26:13.727Z,39.43
2017-11-18T00:28:42.576Z,30.93
2017-11-18T00:31:12.048Z,27.77
2017-11-18T00:33:40.929Z,32.70
2017-11-18T00:36:09.758Z,32.30
2017-11-18T00:38:38.613Z,32.77
2017-11-18T00:41:07.501Z,30.70
2017-11-18T00:43:36.407Z,35.47
2017-11-18T00:46:05.253Z,31.93
2017-11-18T00:48:34.085Z,30.83
2017-11-18T00:51:02.959Z,36.23
2017-11-18T00:53:32.563Z,33.03
2017-11-18T00:56:02.137Z,28.70
2017-11-18T00:58:31.718Z,31.00
2017-11-18T01:01:01.439Z,34.73
2017-11-18T01:03:30.276Z,34.13
2017-11-18T01:05:59.861Z,29.47
2017-11-18T01:08:28.701Z,29.23
2017-11-18T01:10:57.573Z,31.50
2017-11-18T01:13:26.408Z,30.80
2017-11-18T01:15:55.255Z,34.93
2017-11-18T01:18:24.095Z,34.53
2017-11-18T01:20:52.924Z,33.00
2017-11-18T01:23:21.820Z,34.40
2017-11-18T01:25:50.647Z,32.63
2017-11-18T01:28:19.482Z,30.70
2017-11-18T01:30:48.323Z,33.90
2017-11-18T01:33:17.157Z,35.40
2017-11-18T01:35:46.067Z,32.90
2017-11-18T01:38:14.963Z,31.27
2017-11-18T01:40:43.795Z,33.47
2017-11-18T01:43:12.635Z,27.77
2017-11-18T01:45:41.471Z,31.90
2017-11-18T01:48:10.304Z,40.00
2017-11-18T01:50:39.149Z,34.30
2017-11-18T01:53:08.008Z,33.10
2017-11-18T01:55:36.839Z,36.87
2017-11-18T01:58:06.095Z,33.50
2017-11-18T02:00:34.940Z,29.13
2017-11-18T02:03:04.506Z,32.60
2017-11-18T02:05:34.199Z,31.97
2017-11-18T02:08:03.784Z,40.13
2017-11-18T02:10:33.412Z,37.47
2017-11-18T02:13:02.998Z,30.70
2017-11-18T02:15:31.850Z,36.27
2017-11-18T02:18:00.679Z,30.20
2017-11-18T02:20:29.583Z,33.30
2017-11-18T02:22:58.432Z,31.70
2017-11-18T02:25:27.264Z,30.40
2017-11-18T02:27:56.160Z,29.70
2017-11-18T02:30:26.787Z,35.03
2017-11-18T02:32:55.616Z,30.23
2017-11-18T02:35:24.476Z,32.00
2017-11-18T02:37:53.383Z,35.03
2017-11-18T02:40:22.256Z,31.40
2017-11-18T02:42:51.114Z,29.97
2017-11-18T02:45:19.962Z,33.17
2017-11-18T02:47:48.793Z,29.30
2017-11-18T02:50:17.624Z,31.00
2017-11-18T02:52:46.702Z,28.60
2017-11-18T02:55:15.530Z,33.57
2017-11-18T02:57:44.415Z,29.23
2017-11-18T03:00:13.260Z,35.50
2017-11-18T03:02:42.089Z,32.57
2017-11-18T03:05:10.924Z,32.03
2017-11-18T03:07:39.803Z,25.73
2017-11-18T03:10:08.636Z,28.90
2017-11-18T03:12:37.462Z,28.30
2017-11-18T03:15:06.389Z,33.63
2017-11-18T03:17:35.956Z,28.70
2017-11-18T03:20:05.549Z,33.03
2017-11-18T03:22:35.239Z,24.60
2017-11-18T03:25:04.896Z,34.90
2017-11-18T03:27:33.739Z,29.07
2017-11-18T03:30:02.646Z,27.60
2017-11-18T03:32:31.476Z,28.50
2017-11-18T03:35:00.331Z,28.90
2017-11-18T03:37:29.199Z,27.33
2017-11-18T03:39:58.033Z,29.40
2017-11-18T03:42:26.863Z,26.40
2017-11-18T03:44:55.783Z,33.70
2017-11-18T03:47:24.612Z,30.00
2017-11-18T03:49:53.442Z,32.00
2017-11-18T03:52:22.358Z,32.57
2017-11-18T03:54:51.201Z,31.77
2017-11-18T03:57:20.447Z,26.83
2017-11-18T03:59:49.293Z,28.80
2017-11-18T04:02:18.189Z,29.90
2017-11-18T04:04:47.870Z,30.23
2017-11-18T04:07:16.736Z,31.40
2017-11-18T04:09:45.575Z,27.90
2017-11-18T04:12:14.404Z,27.40
2017-11-18T04:14:43.287Z,26.60
2017-11-18T04:17:12.180Z,30.20
2017-11-18T04:19:41.004Z,31.17
2017-11-18T04:22:09.854Z,35.00
2017-11-18T04:24:38.684Z,27.40
2017-11-18T04:27:08.112Z,29.42
2017-11-18T04:29:37.704Z,26.17
2017-11-18T04:32:07.276Z,30.50
2017-11-18T04:34:36.863Z,29.80
2017-11-18T04:37:06.491Z,33.47
2017-11-18T04:39:35.627Z,31.37
2017-11-18T04:42:04.625Z,27.60
2017-11-18T04:44:33.468Z,27.87
2017-11-18T04:47:02.315Z,31.57
2017-11-18T04:49:31.167Z,31.70
2017-11-18T04:51:59.999Z,30.03
2017-11-18T04:54:28.927Z,30.33
2017-11-18T04:56:57.770Z,29.53
2017-11-18T04:59:26.609Z,29.40
2017-11-18T05:01:55.439Z,30.53
2017-11-18T05:04:24.279Z,34.27
2017-11-18T05:06:53.121Z,30.70
2017-11-18T05:09:22.064Z,30.50
2017-11-18T05:11:50.958Z,30.43
2017-11-18T05:14:19.792Z,27.03
2017-11-18T05:16:48.669Z,33.73
2017-11-18T05:19:17.532Z,33.50
2017-11-18T05:21:46.373Z,33.13
2017-11-18T05:24:15.248Z,30.60
2017-11-18T05:26:44.092Z,34.00
2017-11-18T05:29:12.936Z,33.87
2017-11-18T05:31:41.782Z,32.10
2017-11-18T05:34:10.629Z,30.53
2017-11-18T05:36:39.912Z,33.95
2017-11-18T05:39:09.480Z,28.53
2017-11-18T05:41:39.099Z,31.10
2017-11-18T05:44:08.676Z,33.33
2017-11-18T05:46:38.259Z,26.60
2017-11-18T05:49:07.907Z,31.57
2017-11-18T05:51:36.795Z,34.17
2017-11-18T05:54:05.638Z,30.10
2017-11-18T05:56:34.587Z,32.90
2017-11-18T05:59:03.461Z,30.23
2017-11-18T06:01:32.350Z,34.90
2017-11-18T06:04:01.254Z,36.43
2017-11-18T06:06:30.086Z,33.27
2017-11-18T06:08:58.927Z,37.17
2017-11-18T06:11:27.836Z,35.00
2017-11-18T06:13:56.724Z,36.63
2017-11-18T06:16:25.969Z,31.57
2017-11-18T06:18:55.834Z,36.70
2017-11-18T06:21:24.665Z,36.37
2017-11-18T06:23:53.608Z,37.93
2017-11-18T06:26:22.507Z,32.87
2017-11-18T06:28:51.340Z,32.57
2017-11-18T06:31:20.190Z,37.03
2017-11-18T06:33:49.037Z,38.97
2017-11-18T06:36:17.874Z,35.97
2017-11-18T06:38:46.759Z,36.77
2017-11-18T06:41:15.620Z,35.37
2017-11-18T06:43:44.452Z,36.00
2017-11-18T06:46:13.304Z,32.97
2017-11-18T06:48:42.151Z,40.00
2017-11-18T06:51:11.271Z,35.53
2017-11-18T06:53:40.862Z,38.87
2017-11-18T06:56:10.459Z,32.00
2017-11-18T06:58:40.043Z,37.37
2017-11-18T07:01:09.619Z,45.00
2017-11-18T07:03:38.463Z,39.13
2017-11-18T07:06:07.316Z,34.77
2017-11-18T07:08:36.165Z,44.30
2017-11-18T07:11:05.013Z,41.53
2017-11-18T07:13:33.846Z,49.87
2017-11-18T07:16:02.787Z,38.40
2017-11-18T07:18:31.636Z,45.73
2017-11-18T07:21:00.466Z,46.50
2017-11-18T07:23:29.391Z,42.27
2017-11-18T07:25:58.255Z,43.70
2017-11-18T07:28:27.136Z,41.10
2017-11-18T07:30:55.969Z,51.53
2017-11-18T07:33:24.813Z,44.50
2017-11-18T07:35:53.643Z,43.23
2017-11-18T07:38:22.480Z,50.43
2017-11-18T07:40:51.524Z,45.53
2017-11-18T07:43:20.352Z,44.10
2017-11-18T07:45:49.180Z,47.37
2017-11-18T07:48:18.020Z,39.13
2017-11-18T07:50:46.862Z,42.73
2017-11-18T07:53:15.755Z,47.67
2017-11-18T07:55:44.600Z,46.70
2017-11-18T07:58:13.522Z,46.30
2017-11-18T08:00:43.036Z,46.83
2017-11-18T08:03:12.620Z,58.57
2017-11-18T08:05:42.196Z,46.10
2017-11-18T08:08:11.778Z,50.30
2017-11-18T08:10:41.367Z,51.10
2017-11-18T08:13:10.274Z,48.43
2017-11-18T08:15:39.139Z,51.40
2017-11-18T08:18:08.040Z,48.80
2017-11-18T08:20:36.929Z,47.47
2017-11-18T08:23:05.820Z,56.00
2017-11-18T08:25:34.654Z,56.43
2017-11-18T08:28:03.496Z,44.43
2017-11-18T08:30:32.333Z,45.77
2017-11-18T08:33:01.170Z,48.70
2017-11-18T08:35:30.015Z,53.33
2017-11-18T08:37:58.952Z,54.30
2017-11-18T08:40:27.849Z,53.23
2017-11-18T08:42:56.681Z,61.73
2017-11-18T08:45:25.524Z,58.77
2017-11-18T08:47:54.359Z,54.73
2017-11-18T08:50:23.180Z,61.70
2017-11-18T08:52:52.467Z,65.70
2017-11-18T08:55:21.399Z,57.53
2017-11-18T08:57:50.228Z,60.13
2017-11-18T09:00:19.075Z,67.43
2017-11-18T09:02:47.917Z,59.87
2017-11-18T09:05:16.745Z,64.67
2017-11-18T09:07:45.588Z,64.10
2017-11-18T09:10:14.865Z,74.57
2017-11-18T09:12:44.469Z,70.60
2017-11-18T09:15:14.061Z,75.97
2017-11-18T09:17:43.643Z,73.90
2017-11-18T09:20:13.218Z,67.97
2017-11-18T09:22:42.176Z,71.30
2017-11-18T09:25:11.006Z,71.10
2017-11-18T09:27:39.860Z,63.27
2017-11-18T09:30:08.710Z,59.20
2017-11-18T09:32:37.631Z,56.17
2017-11-18T09:35:06.468Z,64.70
2017-11-18T09:37:35.411Z,55.13
2017-11-18T09:40:04.308Z,54.93
2017-11-18T09:42:33.180Z,52.23
2017-11-18T09:45:02.029Z,52.33
2017-11-18T09:47:30.886Z,57.77
2017-11-18T09:49:59.711Z,53.20
2017-11-18T09:52:28.671Z,50.20
2017-11-18T09:54:57.501Z,52.67
2017-11-18T09:57:26.336Z,47.93
2017-11-18T09:59:55.176Z,51.87
2017-11-18T10:02:24.012Z,45.67
2017-11-18T10:04:52.848Z,45.43
2017-11-18T10:07:21.691Z,49.50
2017-11-18T10:09:50.599Z,46.80
2017-11-18T10:12:19.478Z,48.77
2017-11-18T10:14:48.323Z,43.70
2017-11-18T10:17:17.163Z,37.60
2017-11-18T10:19:46.663Z,43.30
2017-11-18T10:22:16.259Z,43.30
2017-11-18T10:24:45.841Z,39.70
2017-11-18T10:27:15.418Z,37.87
2017-11-18T10:29:45.099Z,39.73
2017-11-18T10:32:13.996Z,34.93
2017-11-18T10:34:42.831Z,39.50
2017-11-18T10:37:11.680Z,41.00
2017-11-18T10:39:40.520Z,32.90
2017-11-18T10:42:09.968Z,37.50
2017-11-18T10:44:38.816Z,36.60
2017-11-18T10:47:07.648Z,34.87
2017-11-18T10:49:36.472Z,33.40
2017-11-18T10:52:05.316Z,35.03
2017-11-18T10:54:34.149Z,35.03
2017-11-18T10:57:02.996Z,33.33
2017-11-18T10:59:31.852Z,32.80
2017-11-18T11:02:00.680Z,32.20
2017-11-18T11:04:29.508Z,32.10
2017-11-18T11:06:58.348Z,33.50
2017-11-18T11:09:32.085Z,31.00
2017-11-18T11:12:00.929Z,32.00
2017-11-18T11:14:29.755Z,30.50
2017-11-18T11:16:58.608Z,32.00
2017-11-18T11:19:27.451Z,28.67
2017-11-18T11:21:56.323Z,30.27
2017-11-18T11:24:25.169Z,28.97
2017-11-18T11:26:54.006Z,27.27
2017-11-18T11:29:22.886Z,27.83
2017-11-18T11:31:51.732Z,26.97
2017-11-18T11:34:20.589Z,27.37
2017-11-18T11:36:49.436Z,28.90
2017-11-18T11:39:18.275Z,27.93
2017-11-18T11:41:47.860Z,29.60
2017-11-18T11:44:17.454Z,24.37
2017-11-18T11:46:47.071Z,27.60
2017-11-18T11:49:16.671Z,27.73
2017-11-18T11:51:46.245Z,28.93
2017-11-18T11:54:15.086Z,29.77
2017-11-18T11:56:43.936Z,35.60
2017-11-18T11:59:12.783Z,31.57
2017-11-18T12:01:41.626Z,27.43
2017-11-18T12:04:10.518Z,31.87
2017-11-18T12:06:39.467Z,30.47
2017-11-18T12:09:08.321Z,28.20
2017-11-18T12:11:37.164Z,32.73
2017-11-18T12:14:06.107Z,34.63
2017-11-18T12:16:34.943Z,32.97
2017-11-18T12:19:03.895Z,31.17
2017-11-18T12:21:32.784Z,28.83
2017-11-18T12:24:01.667Z,29.60
2017-11-18T12:26:30.529Z,32.37
2017-11-18T12:28:59.365Z,29.83
2017-11-18T12:31:28.226Z,32.53
2017-11-18T12:33:57.132Z,26.13
2017-11-18T12:36:25.969Z,29.90
2017-11-18T12:38:54.812Z,27.73
2017-11-18T12:41:23.700Z,28.63
2017-11-18T12:43:52.585Z,28.10
2017-11-18T12:46:21.408Z,28.17
2017-11-18T12:48:50.258Z,30.90
2017-11-18T12:51:19.118Z,28.00
2017-11-18T12:53:48.758Z,30.23
2017-11-18T12:56:18.347Z,30.30
2017-11-18T12:58:47.980Z,32.30
2017-11-18T13:01:17.577Z,28.77
2017-11-18T13:03:46.435Z,28.47
2017-11-18T13:06:15.263Z,27.00
2017-11-18T13:08:44.087Z,28.77
2017-11-18T13:11:12.970Z,31.40
2017-11-18T13:13:41.799Z,26.73
2017-11-18T13:16:10.628Z,27.23
2017-11-18T13:18:39.525Z,26.93
2017-11-18T13:21:08.411Z,30.67
2017-11-18T13:23:37.242Z,26.47
2017-11-18T13:26:06.193Z,20.93
2017-11-18T13:28:35.025Z,25.20
2017-11-18T13:31:03.851Z,29.43
2017-11-18T13:33:32.705Z,27.83
2017-11-18T13:36:01.536Z,24.00
2017-11-18T13:38:30.367Z,28.73
2017-11-18T13:40:59.826Z,24.03
2017-11-18T13:43:28.664Z,23.10
2017-11-18T13:45:57.504Z,25.87
2017-11-18T13:48:26.352Z,20.20
2017-11-18T13:50:55.196Z,22.67
2017-11-18T13:53:24.470Z,22.23
2017-11-18T13:55:53.316Z,24.63
2017-11-18T13:58:22.156Z,27.27
2017-11-18T14:00:50.997Z,25.50
2017-11-18T14:03:20.448Z,26.47
2017-11-18T14:05:50.037Z,24.70
2017-11-18T14:08:19.707Z,24.23
2017-11-18T14:10:49.311Z,21.50
2017-11-18T14:13:18.892Z,23.93
2017-11-18T14:15:47.726Z,23.40
2017-11-18T14:18:16.567Z,17.77
2017-11-18T14:20:45.491Z,21.20
2017-11-18T14:23:14.377Z,19.57
2017-11-18T14:25:43.225Z,20.10
2017-11-18T14:28:12.056Z,21.27
2017-11-18T14:30:40.887Z,17.80
2017-11-18T14:33:09.740Z,20.80
2017-11-18T14:35:38.573Z,20.13
2017-11-18T14:38:07.406Z,17.47
2017-11-18T14:40:36.305Z,19.00
2017-11-18T14:43:05.150Z,20.03
2017-11-18T14:45:34.093Z,19.97
2017-11-18T14:48:02.950Z,19.87
2017-11-18T14:50:31.780Z,20.33
2017-11-18T14:53:00.612Z,19.70
2017-11-18T14:55:29.460Z,20.17
2017-11-18T14:57:58.295Z,21.37
2017-11-18T15:00:27.124Z,19.43
2017-11-18T15:02:55.979Z,21.07
2017-11-18T15:05:24.811Z,21.73
2017-11-18T15:07:53.660Z,20.43
2017-11-18T15:10:22.516Z,29.40
2017-11-18T15:12:51.348Z,19.70
2017-11-18T15:15:35.815Z,19.97
2017-11-18T15:18:10.360Z,18.87
2017-11-18T15:20:45.047Z,17.63
2017-11-18T15:23:30.681Z,18.60
2017-11-18T15:26:05.347Z,42.33
2017-11-18T15:28:39.928Z,32.50
2017-11-18T15:31:14.639Z,23.10
2017-11-18T15:33:53.375Z,23.83
2017-11-18T15:36:28.069Z,74.77
2017-11-18T15:38:59.816Z,37.07
2017-11-18T15:41:28.668Z,50.47
2017-11-18T15:44:03.411Z,94.97
2017-11-18T15:46:50.009Z,23.80
2017-11-18T15:49:25.436Z,21.67
2017-11-18T15:51:56.828Z,27.43
2017-11-18T15:54:40.540Z,28.60
2017-11-18T15:57:10.894Z,19.83
2017-11-18T15:59:39.717Z,20.37
2017-11-18T16:02:10.072Z,22.40
2017-11-18T16:04:39.732Z,23.90
2017-11-18T16:07:08.560Z,23.33
2017-11-18T16:09:37.387Z,19.13
2017-11-18T16:12:06.236Z,20.50
2017-11-18T16:14:35.081Z,20.70
2017-11-18T16:17:03.914Z,18.40
2017-11-18T16:19:32.847Z,17.33
2017-11-18T16:22:01.683Z,20.20
2017-11-18T16:24:30.521Z,19.93
2017-11-18T16:26:59.369Z,19.77
2017-11-18T16:29:28.212Z,18.57
2017-11-18T16:31:57.054Z,18.50
2017-11-18T16:34:25.947Z,17.33
2017-11-18T16:36:54.774Z,17.00
2017-11-18T16:39:23.606Z,15.00
2017-11-18T16:41:52.449Z,20.40
2017-11-18T16:44:22.198Z,16.13
2017-11-18T16:46:51.846Z,18.60
2017-11-18T16:49:21.421Z,16.03
2017-11-18T16:51:51.009Z,21.80
2017-11-18T16:54:20.604Z,16.53
2017-11-18T16:56:50.258Z,19.00
2017-11-18T16:59:19.164Z,19.00
2017-11-18T17:01:48.051Z,19.17
2017-11-18T17:04:16.879Z,22.10
2017-11-18T17:06:45.710Z,23.17
2017-11-18T17:09:14.615Z,25.20
2017-11-18T17:11:43.457Z,21.30
2017-11-18T17:14:12.305Z,22.40
2017-11-18T17:16:41.147Z,22.17
2017-11-18T17:19:10.080Z,20.20
2017-11-18T17:21:39.217Z,20.47
2017-11-18T17:24:08.067Z,23.10
2017-11-18T17:26:36.901Z,26.47
2017-11-18T17:29:05.746Z,25.70
2017-11-18T17:31:34.761Z,23.57
2017-11-18T17:34:03.654Z,22.10
2017-11-18T17:36:32.522Z,18.30
2017-11-18T17:39:01.418Z,21.80
2017-11-18T17:41:30.303Z,22.07
2017-11-18T17:43:59.135Z,18.43
2017-11-18T17:46:27.976Z,18.40
2017-11-18T17:48:56.886Z,21.53
2017-11-18T17:51:25.729Z,19.73
2017-11-18T17:53:54.618Z,17.77
2017-11-18T17:56:23.453Z,17.17
2017-11-18T17:58:52.661Z,18.52
2017-11-18T18:01:22.378Z,16.70
2017-11-18T18:03:51.950Z,18.03
2017-11-18T18:06:21.533Z,16.17
2017-11-18T18:08:51.240Z,15.03
2017-11-18T18:11:20.160Z,15.37
2017-11-18T18:13:49.104Z,17.00
2017-11-18T18:16:17.954Z,16.17
2017-11-18T18:18:46.789Z,18.80
2017-11-18T18:21:15.661Z,14.97
2017-11-18T18:23:44.496Z,12.90
2017-11-18T18:26:13.340Z,13.33
2017-11-18T18:28:42.204Z,14.33
2017-11-18T18:31:11.106Z,13.80
2017-11-18T18:33:39.939Z,11.80
2017-11-18T18:36:08.771Z,11.10
2017-11-18T18:38:37.670Z,11.53
2017-11-18T18:41:06.536Z,11.70
2017-11-18T18:43:35.379Z,13.63
2017-11-18T18:46:04.249Z,11.07
2017-11-18T18:48:33.077Z,11.23
2017-11-18T18:51:01.923Z,12.17
2017-11-18T18:53:30.809Z,15.53
2017-11-18T18:55:59.638Z,12.10
2017-11-18T18:58:28.464Z,11.00
2017-11-18T19:00:57.304Z,12.90
2017-11-18T19:03:26.151Z,11.13
2017-11-18T19:05:55.069Z,11.10
2017-11-18T19:08:23.907Z,11.40
2017-11-18T19:10:53.574Z,11.93
2017-11-18T19:13:23.156Z,10.83
2017-11-18T19:15:52.749Z,13.53
2017-11-18T19:18:22.323Z,10.43
2017-11-18T19:20:51.999Z,13.10
2017-11-18T19:23:20.847Z,12.57
2017-11-18T19:25:49.684Z,11.00
2017-11-18T19:28:18.527Z,11.23
2017-11-18T19:30:47.717Z,10.80
2017-11-18T19:33:16.764Z,12.07
2017-11-18T19:35:45.587Z,23.07
2017-11-18T19:38:14.423Z,11.40
2017-11-18T19:40:43.256Z,12.80
2017-11-18T19:43:12.087Z,13.00
2017-11-18T19:45:40.931Z,14.60
2017-11-18T19:48:09.799Z,12.20
2017-11-18T19:50:38.683Z,14.70
2017-11-18T19:53:07.570Z,11.63
2017-11-18T19:55:36.401Z,12.20
2017-11-18T19:58:05.259Z,10.30
2017-11-18T20:00:34.101Z,11.20
2017-11-18T20:03:02.954Z,11.70
2017-11-18T20:05:31.833Z,9.00
2017-11-18T20:08:00.675Z,16.20
2017-11-18T20:10:29.506Z,10.43
2017-11-18T20:12:58.345Z,13.20
2017-11-18T20:15:27.189Z,14.83
2017-11-18T20:17:56.020Z,10.87
2017-11-18T20:20:24.862Z,10.93
2017-11-18T20:22:54.456Z,22.70
2017-11-18T20:25:24.036Z,10.50
2017-11-18T20:27:53.688Z,13.80
2017-11-18T20:30:23.277Z,13.23
2017-11-18T20:32:52.902Z,11.57
2017-11-18T20:35:21.731Z,12.23
2017-11-18T20:37:50.582Z,9.77
2017-11-18T20:40:19.416Z,11.63
2017-11-18T20:42:48.256Z,10.80
2017-11-18T20:45:17.155Z,13.00
2017-11-18T20:47:45.987Z,12.13
2017-11-18T20:50:14.843Z,12.13
2017-11-18T20:52:43.686Z,8.00
2017-11-18T20:55:12.600Z,11.07
2017-11-18T20:57:41.440Z,13.40
2017-11-18T21:00:10.276Z,8.10
2017-11-18T21:02:39.106Z,7.60
2017-11-18T21:05:07.932Z,8.57
2017-11-18T21:07:36.872Z,9.03
2017-11-18T21:10:05.717Z,10.17
2017-11-18T21:12:34.547Z,9.07
2017-11-18T21:15:03.386Z,9.60
2017-11-18T21:17:32.216Z,7.33
2017-11-18T21:20:01.044Z,7.40
2017-11-18T21:22:29.884Z,9.43
2017-11-18T21:24:58.716Z,14.00
2017-11-18T21:27:27.543Z,7.53
2017-11-18T21:29:56.384Z,10.53
2017-11-18T21:32:25.516Z,9.60
2017-11-18T21:34:55.424Z,6.43
2017-11-18T21:37:25.007Z,10.67
2017-11-18T21:39:54.575Z,9.13
2017-11-18T21:42:24.209Z,11.93
2017-11-18T21:44:53.787Z,9.00
2017-11-18T21:47:22.618Z,8.07
2017-11-18T21:49:51.507Z,9.13
2017-11-18T21:52:20.361Z,7.10
2017-11-18T21:54:49.286Z,11.20
2017-11-18T21:57:18.928Z,13.57
2017-11-18T21:59:47.883Z,9.87
2017-11-18T22:02:16.784Z,10.03
2017-11-18T22:04:45.613Z,11.00
2017-11-18T22:07:14.560Z,11.97
2017-11-18T22:09:44.241Z,10.80
2017-11-18T22:12:13.081Z,7.80
2017-11-18T22:14:41.947Z,10.23
2017-11-18T22:17:10.832Z,10.90
2017-11-18T22:19:39.668Z,9.13
2017-11-18T22:22:08.520Z,10.43
2017-11-18T22:24:37.350Z,10.30
2017-11-18T22:27:06.169Z,11.60
2017-11-18T22:29:35.024Z,9.40
2017-11-18T22:32:03.948Z,7.00
2017-11-18T22:34:32.775Z,11.43
2017-11-18T22:37:01.632Z,10.10
2017-11-18T22:39:30.465Z,9.80
2017-11-18T22:41:59.298Z,10.50
2017-11-18T22:44:28.141Z,8.57
2017-11-18T22:46:57.371Z,10.70
2017-11-18T22:49:26.671Z,9.68
2017-11-18T22:51:56.262Z,13.23
2017-11-18T22:54:25.837Z,8.87
2017-11-18T22:56:55.407Z,10.13
2017-11-18T22:59:24.999Z,15.67
2017-11-18T23:01:53.842Z,10.53
2017-11-18T23:04:22.740Z,9.93
2017-11-18T23:06:51.595Z,10.03
2017-11-18T23:09:20.433Z,11.57
2017-11-18T23:11:49.310Z,10.53
2017-11-18T23:14:18.176Z,14.00
2017-11-18T23:16:47.005Z,8.50
2017-11-18T23:19:15.832Z,8.00
2017-11-18T23:21:44.688Z,11.10
2017-11-18T23:24:13.525Z,9.93
2017-11-18T23:26:42.348Z,8.77
2017-11-18T23:29:11.191Z,9.33
2017-11-18T23:31:40.016Z,7.90
2017-11-18T23:34:08.859Z,11.10
2017-11-18T23:36:37.812Z,10.53
2017-11-18T23:39:06.643Z,9.97
2017-11-18T23:41:35.489Z,9.10
2017-11-18T23:44:04.339Z,8.80
2017-11-18T23:46:33.274Z,9.77
2017-11-18T23:49:02.103Z,9.40
2017-11-18T23:51:30.939Z,9.20
2017-11-18T23:53:59.767Z,11.27
2017-11-18T23:56:28.623Z,10.70
2017-11-18T23:58:57.989Z,10.23
